Time;durP1;ratioP1;P1;durP2;ratioP2;P2;SDS_P1;SDS_P2;PMS_P1;PMS_P2;Temp;Humidity;BMP_temperature;BMP_pressure;BME280_temperature;BME280_humidity;BME280_pressure;Samples;Min_cycle;Max_cycle;Signal;HPM_P1;HPM_P2
2024/02/26 00:02:15;;;;;;;2.05;0.95;;;7.70;42.40;;;;;;4994560;28;20111;-73
2024/02/26 00:04:40;;;;;;;1.33;0.88;;;7.70;42.70;;;;;;4994092;28;20022;-74
2024/02/26 00:07:06;;;;;;;1.02;0.80;;;7.70;42.70;;;;;;4993831;28;20476;-74
2024/02/26 00:09:35;;;;;;;1.15;0.77;;;7.70;42.80;;;;;;4993989;28;20029;-75
2024/02/26 00:12:01;;;;;;;1.52;1.08;;;7.70;42.70;;;;;;4994444;28;20113;-73
2024/02/26 00:14:26;;;;;;;1.13;0.82;;;7.70;42.80;;;;;;4976875;28;20235;-73
2024/02/26 00:16:52;;;;;;;1.30;0.80;;;7.60;42.50;;;;;;4993931;28;20101;-73
2024/02/26 00:19:17;;;;;;;2.40;0.80;;;7.60;42.80;;;;;;4976737;28;20080;-74
2024/02/26 00:21:43;;;;;;;2.42;1.00;;;7.60;42.80;;;;;;4993999;28;20113;-74
2024/02/26 00:24:08;;;;;;;1.35;0.85;;;7.60;43.30;;;;;;4994050;28;20114;-75
2024/02/26 00:26:34;;;;;;;1.40;0.93;;;7.60;43.50;;;;;;4993967;28;20083;-73
2024/02/26 00:29:00;;;;;;;2.38;0.80;;;7.50;44.00;;;;;;4993967;28;20533;-74
2024/02/26 00:31:25;;;;;;;1.33;0.70;;;7.50;44.50;;;;;;4976772;28;20025;-74
2024/02/26 00:33:51;;;;;;;1.55;1.02;;;7.50;44.30;;;;;;4993794;28;20058;-73
2024/02/26 00:36:18;;;;;;;3.70;1.15;;;7.50;44.80;;;;;;4993784;28;20090;-73
2024/02/26 00:38:44;;;;;;;4.25;1.00;;;7.50;44.90;;;;;;4976615;28;20374;-73
2024/02/26 00:41:10;;;;;;;2.08;1.00;;;7.50;44.90;;;;;;4976493;28;20105;-72
2024/02/26 00:43:38;;;;;;;1.80;1.02;;;7.40;44.70;;;;;;4993784;28;20110;-72
2024/02/26 00:46:03;;;;;;;1.55;0.85;;;7.50;44.90;;;;;;4976323;28;20029;-75
2024/02/26 00:48:29;;;;;;;2.00;1.13;;;7.50;45.10;;;;;;4993613;28;20106;-73
2024/02/26 00:50:54;;;;;;;0.63;0.60;;;7.50;45.40;;;;;;4993769;28;20062;-72
2024/02/26 00:53:20;;;;;;;3.05;1.00;;;7.50;45.50;;;;;;4993607;28;20030;-72
2024/02/26 00:55:45;;;;;;;1.25;0.95;;;7.50;45.20;;;;;;4993877;28;20026;-72
2024/02/26 00:58:11;;;;;;;1.23;0.70;;;7.50;45.20;;;;;;4993577;28;20498;-73
2024/02/26 01:00:37;;;;;;;1.23;0.90;;;7.50;44.70;;;;;;4993615;28;20035;-74
2024/02/26 01:03:03;;;;;;;1.40;0.95;;;7.60;45.10;;;;;;4993585;28;20096;-74
2024/02/26 01:05:29;;;;;;;1.05;0.80;;;7.60;44.60;;;;;;4993309;28;20030;-73
2024/02/26 01:07:54;;;;;;;2.08;0.95;;;7.60;44.60;;;;;;4976256;28;20034;-72
2024/02/26 01:10:20;;;;;;;1.23;0.90;;;7.60;44.60;;;;;;4976293;28;20364;-72
2024/02/26 01:12:45;;;;;;;1.67;1.13;;;7.60;44.50;;;;;;4993448;28;20026;-73
2024/02/26 01:15:11;;;;;;;1.65;0.90;;;7.60;44.20;;;;;;4993389;28;20105;-72
2024/02/26 01:17:36;;;;;;;2.17;0.93;;;7.60;44.50;;;;;;4975772;28;20054;-73
2024/02/26 01:20:02;;;;;;;1.88;0.93;;;7.60;44.70;;;;;;4995997;28;20033;-72
2024/02/26 01:22:28;;;;;;;1.70;0.73;;;7.60;44.60;;;;;;4979966;28;20038;-73
2024/02/26 01:24:53;;;;;;;1.45;0.90;;;7.60;44.90;;;;;;4997263;28;20078;-73
2024/02/26 01:27:19;;;;;;;1.65;0.70;;;7.60;45.30;;;;;;4997177;28;20054;-73
2024/02/26 01:29:45;;;;;;;1.45;0.90;;;7.60;45.00;;;;;;4997296;28;20018;-72
2024/02/26 01:32:10;;;;;;;1.15;0.80;;;7.60;45.10;;;;;;4997038;28;20030;-73
2024/02/26 01:34:36;;;;;;;1.80;1.10;;;7.70;45.80;;;;;;4997103;28;20073;-74
2024/02/26 01:37:02;;;;;;;1.20;0.82;;;7.70;45.10;;;;;;4996998;28;20093;-73
2024/02/26 01:39:30;;;;;;;1.42;0.95;;;7.70;45.00;;;;;;4996947;28;20468;-72
2024/02/26 01:41:55;;;;;;;1.25;0.80;;;7.70;45.20;;;;;;4996784;28;20464;-72
2024/02/26 01:44:21;;;;;;;2.00;0.80;;;7.70;45.40;;;;;;4996902;28;20101;-72
2024/02/26 01:46:48;;;;;;;0.90;0.77;;;7.80;45.60;;;;;;4996733;28;20518;-72
2024/02/26 01:49:15;;;;;;;1.45;0.77;;;7.90;46.20;;;;;;4979608;28;20026;-72
2024/02/26 01:51:43;;;;;;;1.85;0.98;;;7.90;46.50;;;;;;4979534;28;20050;-74
2024/02/26 01:54:08;;;;;;;0.85;0.80;;;7.80;46.80;;;;;;4996721;28;20023;-72
2024/02/26 01:56:35;;;;;;;1.42;1.00;;;7.70;46.60;;;;;;4996645;28;20085;-73
2024/02/26 01:59:02;;;;;;;2.38;1.10;;;7.60;46.60;;;;;;4979199;28;20420;-72
2024/02/26 02:01:29;;;;;;;3.15;0.88;;;7.50;47.10;;;;;;4996513;28;20470;-72
2024/02/26 02:03:57;;;;;;;1.48;0.82;;;7.40;47.10;;;;;;4979273;28;20041;-73
2024/02/26 02:06:23;;;;;;;0.73;0.45;;;7.40;46.80;;;;;;4979000;28;20030;-74
2024/02/26 02:08:49;;;;;;;0.95;0.60;;;7.50;46.30;;;;;;4996521;28;20066;-73
2024/02/26 02:11:15;;;;;;;1.73;0.70;;;7.50;46.50;;;;;;4996443;28;20120;-73
2024/02/26 02:13:40;;;;;;;1.38;0.70;;;7.50;46.60;;;;;;4996400;28;20514;-74
2024/02/26 02:16:06;;;;;;;2.20;0.80;;;7.60;46.80;;;;;;4965483;28;20575;-73
2024/02/26 02:18:32;;;;;;;0.38;0.38;;;7.60;47.10;;;;;;4958745;28;20086;-73
2024/02/26 02:21:00;;;;;;;2.50;0.80;;;7.70;47.50;;;;;;4958957;28;20023;-74
2024/02/26 02:23:26;;;;;;;0.77;0.57;;;7.70;47.70;;;;;;4959419;28;20455;-74
2024/02/26 02:25:52;;;;;;;1.38;0.68;;;7.70;47.80;;;;;;4976637;28;20031;-73
2024/02/26 02:28:19;;;;;;;0.68;0.50;;;7.70;47.40;;;;;;4959391;28;20066;-73
2024/02/26 02:30:44;;;;;;;0.55;0.40;;;7.70;47.60;;;;;;4975729;28;20015;-73
2024/02/26 02:33:12;;;;;;;0.40;0.38;;;7.70;49.50;;;;;;4959337;28;20029;-73
2024/02/26 02:35:37;;;;;;;0.35;0.35;;;7.90;49.50;;;;;;4976495;28;20395;-73
2024/02/26 02:38:03;;;;;;;0.73;0.30;;;7.90;49.50;;;;;;4976492;28;20023;-73
2024/02/26 02:40:28;;;;;;;0.45;0.40;;;8.00;49.50;;;;;;4976385;28;20031;-73
2024/02/26 02:42:54;;;;;;;0.60;0.40;;;8.00;49.60;;;;;;4976160;28;20035;-73
2024/02/26 02:45:20;;;;;;;0.88;0.57;;;8.10;49.70;;;;;;4959114;28;20034;-73
2024/02/26 02:47:45;;;;;;;1.75;0.85;;;8.10;49.30;;;;;;4959052;28;20027;-73
2024/02/26 02:50:11;;;;;;;1.08;0.70;;;8.10;49.20;;;;;;4959113;28;20027;-72
2024/02/26 02:52:36;;;;;;;1.42;0.60;;;8.10;49.10;;;;;;4958990;28;20023;-73
2024/02/26 02:55:02;;;;;;;0.60;0.60;;;8.10;49.30;;;;;;4959016;28;20023;-73
2024/02/26 02:57:28;;;;;;;0.60;0.55;;;8.10;49.30;;;;;;4975936;28;20337;-74
2024/02/26 02:59:54;;;;;;;2.50;0.73;;;8.10;49.20;;;;;;4975964;28;20027;-73
2024/02/26 03:02:19;;;;;;;1.00;0.70;;;8.10;49.10;;;;;;4975805;28;20062;-73
2024/02/26 03:04:44;;;;;;;1.65;0.68;;;8.10;49.10;;;;;;4975764;28;20031;-73
2024/02/26 03:07:10;;;;;;;1.33;0.82;;;8.10;49.10;;;;;;4975764;28;20101;-72
2024/02/26 03:09:36;;;;;;;3.63;0.80;;;8.10;49.10;;;;;;4975826;28;20019;-73
2024/02/26 03:12:01;;;;;;;1.70;0.80;;;8.10;49.20;;;;;;4958542;28;20092;-74
2024/02/26 03:14:27;;;;;;;1.25;0.57;;;8.00;49.30;;;;;;4958761;28;20035;-73
2024/02/26 03:16:55;;;;;;;0.50;0.50;;;8.00;49.60;;;;;;4975480;28;20053;-73
2024/02/26 03:19:21;;;;;;;1.17;0.60;;;8.00;50.00;;;;;;4975910;28;20031;-74
2024/02/26 03:21:47;;;;;;;2.35;0.90;;;8.00;50.50;;;;;;4975667;28;20118;-73
2024/02/26 03:24:12;;;;;;;1.48;0.88;;;8.00;51.10;;;;;;4975477;28;20119;-74
2024/02/26 03:26:38;;;;;;;1.25;0.70;;;8.00;51.60;;;;;;4975448;28;20019;-74
2024/02/26 03:29:05;;;;;;;1.70;0.50;;;7.90;51.90;;;;;;4958059;28;20027;-73
2024/02/26 03:31:30;;;;;;;0.55;0.50;;;7.90;52.50;;;;;;4975372;28;20109;-73
2024/02/26 03:33:56;;;;;;;0.57;0.50;;;7.90;53.10;;;;;;4958319;28;20054;-73
2024/02/26 03:36:21;;;;;;;2.63;0.63;;;7.80;53.60;;;;;;4975312;28;20026;-74
2024/02/26 03:38:50;;;;;;;0.80;0.60;;;7.80;54.30;;;;;;4975239;28;20027;-73
2024/02/26 03:41:16;;;;;;;2.28;0.73;;;7.70;54.80;;;;;;4974815;28;20039;-72
2024/02/26 03:43:41;;;;;;;1.42;1.10;;;7.70;54.80;;;;;;4974979;28;20476;-73
2024/02/26 03:46:08;;;;;;;1.58;0.60;;;7.70;54.40;;;;;;4973867;28;20070;-72
2024/02/26 03:48:34;;;;;;;1.55;0.75;;;7.70;54.40;;;;;;4957991;28;20029;-72
2024/02/26 03:51:00;;;;;;;1.77;0.65;;;7.70;54.50;;;;;;4974027;28;20022;-73
2024/02/26 03:53:25;;;;;;;0.70;0.70;;;7.70;54.90;;;;;;4973747;28;20071;-73
2024/02/26 03:55:52;;;;;;;0.65;0.60;;;7.70;55.00;;;;;;4957913;28;20483;-72
2024/02/26 03:58:18;;;;;;;2.15;0.73;;;7.80;55.00;;;;;;4975144;28;20059;-74
2024/02/26 04:00:44;;;;;;;1.75;0.70;;;7.80;54.80;;;;;;4974829;28;20027;-73
2024/02/26 04:03:09;;;;;;;1.85;0.80;;;7.60;56.40;;;;;;4957412;28;20042;-72
2024/02/26 04:05:35;;;;;;;1.70;0.80;;;7.60;56.40;;;;;;4974709;28;20102;-73
2024/02/26 04:08:00;;;;;;;1.50;0.70;;;7.60;56.60;;;;;;4957559;28;20039;-72
2024/02/26 04:10:26;;;;;;;2.88;0.70;;;7.50;57.10;;;;;;4957539;28;20065;-72
2024/02/26 04:12:51;;;;;;;0.85;0.75;;;7.60;56.40;;;;;;4974640;28;20030;-73
2024/02/26 04:15:17;;;;;;;1.30;0.60;;;7.60;56.40;;;;;;4974588;28;20035;-72
2024/02/26 04:17:43;;;;;;;0.80;0.57;;;7.60;57.40;;;;;;4974448;28;20054;-73
2024/02/26 04:20:14;;;;;;;1.13;1.02;;;7.60;57.60;;;;;;4974701;28;20106;-72
2024/02/26 04:22:39;;;;;;;0.73;0.70;;;7.60;58.70;;;;;;4974566;28;20432;-73
2024/02/26 04:25:05;;;;;;;1.08;0.82;;;7.60;58.50;;;;;;4974446;28;20027;-73
2024/02/26 04:27:31;;;;;;;1.35;0.68;;;7.60;59.00;;;;;;4957259;28;20033;-72
2024/02/26 04:29:56;;;;;;;0.93;0.80;;;7.70;59.30;;;;;;4957340;28;20018;-73
2024/02/26 04:32:22;;;;;;;0.68;0.68;;;7.70;59.40;;;;;;4974300;28;20113;-72
2024/02/26 04:34:47;;;;;;;1.02;0.70;;;7.70;58.90;;;;;;4957293;28;20046;-72
2024/02/26 04:37:13;;;;;;;1.38;0.80;;;7.70;58.90;;;;;;4957228;28;20027;-73
2024/02/26 04:39:38;;;;;;;1.88;0.80;;;7.80;59.40;;;;;;4974284;28;20500;-72
2024/02/26 04:42:04;;;;;;;3.33;0.98;;;7.80;60.00;;;;;;4957105;28;20038;-72
2024/02/26 04:44:30;;;;;;;0.73;0.50;;;7.80;60.50;;;;;;4974115;28;20110;-74
2024/02/26 04:46:55;;;;;;;2.47;1.00;;;7.80;60.00;;;;;;4972863;28;20078;-74
2024/02/26 04:49:21;;;;;;;2.78;0.88;;;7.80;60.40;;;;;;4973893;28;20117;-73
2024/02/26 04:51:48;;;;;;;2.10;0.90;;;7.80;60.80;;;;;;4974064;28;20030;-72
2024/02/26 04:54:13;;;;;;;1.98;1.45;;;7.80;61.70;;;;;;4956365;28;20033;-72
2024/02/26 04:56:39;;;;;;;3.92;2.55;;;7.90;62.80;;;;;;4972633;28;20117;-73
2024/02/26 04:59:04;;;;;;;5.68;3.88;;;7.90;63.00;;;;;;4956878;28;20058;-73
2024/02/26 05:01:30;;;;;;;4.22;3.15;;;7.80;63.20;;;;;;4956856;28;20117;-73
2024/02/26 05:03:55;;;;;;;3.50;2.40;;;7.80;63.80;;;;;;4956838;28;20050;-73
2024/02/26 05:06:21;;;;;;;2.03;1.50;;;7.90;64.30;;;;;;4973924;28;20030;-73
2024/02/26 05:08:46;;;;;;;7.78;4.70;;;7.80;64.30;;;;;;4973907;28;20034;-73
2024/02/26 05:11:12;;;;;;;6.13;3.45;;;7.70;66.20;;;;;;4973858;28;20031;-73
2024/02/26 05:13:37;;;;;;;4.65;2.80;;;7.70;66.00;;;;;;4956768;28;20034;-74
2024/02/26 05:16:03;;;;;;;4.97;2.63;;;7.60;66.30;;;;;;4956360;28;20047;-73
2024/02/26 05:18:29;;;;;;;4.32;2.22;;;7.60;66.90;;;;;;4973900;28;20027;-74
2024/02/26 05:20:54;;;;;;;3.83;2.05;;;7.60;66.80;;;;;;4973820;28;20047;-73
2024/02/26 05:23:20;;;;;;;3.97;2.00;;;7.60;67.70;;;;;;4956494;28;20484;-74
2024/02/26 05:25:47;;;;;;;2.65;1.65;;;7.60;67.00;;;;;;4973949;28;20468;-73
2024/02/26 05:28:12;;;;;;;2.58;1.83;;;7.60;67.30;;;;;;4956682;28;20035;-73
2024/02/26 05:30:39;;;;;;;3.45;1.90;;;7.60;67.80;;;;;;4973673;28;20029;-73
2024/02/26 05:33:05;;;;;;;2.85;1.48;;;7.60;67.50;;;;;;4972550;28;20051;-73
2024/02/26 05:35:31;;;;;;;2.30;1.50;;;7.60;66.90;;;;;;4956625;28;20027;-73
2024/02/26 05:37:56;;;;;;;2.08;1.50;;;7.50;67.60;;;;;;4956252;28;20027;-73
2024/02/26 05:40:22;;;;;;;2.75;1.85;;;7.60;67.70;;;;;;4973401;28;20469;-72
2024/02/26 05:42:48;;;;;;;7.00;3.72;;;7.60;67.70;;;;;;4956384;28;20046;-73
2024/02/26 05:45:14;;;;;;;4.60;3.20;;;7.50;67.40;;;;;;4956489;28;20427;-72
2024/02/26 05:47:42;;;;;;;3.58;2.20;;;7.40;68.40;;;;;;4956456;28;20118;-72
2024/02/26 05:50:10;;;;;;;3.42;1.63;;;7.30;66.90;;;;;;4956499;28;20031;-72
2024/02/26 05:52:36;;;;;;;2.03;1.40;;;7.40;65.40;;;;;;4956352;28;20027;-72
2024/02/26 05:55:02;;;;;;;2.67;1.90;;;7.30;64.60;;;;;;4973373;28;20192;-73
2024/02/26 05:57:28;;;;;;;3.58;2.33;;;7.30;65.20;;;;;;4956208;28;20053;-72
2024/02/26 05:59:53;;;;;;;5.93;2.90;;;7.40;65.80;;;;;;4972206;28;20051;-73
2024/02/26 06:02:19;;;;;;;5.18;2.92;;;7.30;66.30;;;;;;4973344;28;20114;-72
2024/02/26 06:04:44;;;;;;;6.47;3.90;;;7.40;66.50;;;;;;4973391;28;20379;-73
2024/02/26 06:07:10;;;;;;;6.30;3.60;;;7.40;66.80;;;;;;4975844;28;20035;-73
2024/02/26 06:09:35;;;;;;;6.57;4.10;;;7.40;66.40;;;;;;4977057;28;20038;-72
2024/02/26 06:12:01;;;;;;;7.63;4.20;;;7.40;66.00;;;;;;4976635;28;20496;-73
2024/02/26 06:14:26;;;;;;;7.05;4.07;;;7.40;65.70;;;;;;4976616;28;20027;-72
2024/02/26 06:16:52;;;;;;;7.78;4.28;;;7.40;65.60;;;;;;4976539;28;20070;-73
2024/02/26 06:19:17;;;;;;;5.15;3.38;;;7.40;65.40;;;;;;4976553;28;20041;-73
2024/02/26 06:21:43;;;;;;;5.63;2.85;;;7.40;64.90;;;;;;4975214;28;20451;-72
2024/02/26 06:24:08;;;;;;;4.57;2.92;;;7.40;64.40;;;;;;4976392;28;20521;-74
2024/02/26 06:26:34;;;;;;;17.15;10.48;;;7.40;63.80;;;;;;4976432;28;20034;-73
2024/02/26 06:29:00;;;;;;;28.75;17.38;;;7.40;63.40;;;;;;4976040;28;20026;-73
2024/02/26 06:31:27;;;;;;;12.73;6.03;;;7.40;63.20;;;;;;4958478;28;20030;-73
2024/02/26 06:33:53;;;;;;;5.63;2.85;;;7.40;63.20;;;;;;4976339;28;20081;-72
2024/02/26 06:36:19;;;;;;;7.32;2.88;;;7.40;63.40;;;;;;4976127;28;20046;-72
2024/02/26 06:38:44;;;;;;;6.20;3.20;;;7.40;65.10;;;;;;4976118;28;20488;-73
2024/02/26 06:41:11;;;;;;;4.68;3.03;;;7.40;66.30;;;;;;4975949;28;20031;-72
2024/02/26 06:43:36;;;;;;;6.18;2.85;;;7.30;66.40;;;;;;4976091;28;20045;-73
2024/02/26 06:46:02;;;;;;;6.70;2.10;;;7.30;65.50;;;;;;4975909;28;20018;-73
2024/02/26 06:48:28;;;;;;;2.90;2.10;;;7.20;63.70;;;;;;4976024;28;20120;-73
2024/02/26 06:50:53;;;;;;;2.95;1.73;;;7.20;64.20;;;;;;4958699;28;20085;-73
2024/02/26 06:53:19;;;;;;;2.80;2.03;;;7.20;64.50;;;;;;4975093;28;20019;-74
2024/02/26 06:55:45;;;;;;;3.92;2.25;;;7.30;64.80;;;;;;4959082;28;20038;-74
2024/02/26 06:58:11;;;;;;;9.73;3.45;;;7.30;65.10;;;;;;4958734;28;20058;-75
2024/02/26 07:00:37;;;;;;;7.35;3.38;;;7.60;78.70;;;;;;4978686;28;20034;-79
2024/02/26 07:03:03;;;;;;;7.22;3.60;;;7.90;78.50;;;;;;4979946;28;20066;-80
2024/02/26 07:05:29;;;;;;;4.55;3.28;;;8.00;72.70;;;;;;4974474;28;20030;-79
2024/02/26 07:07:54;;;;;;;6.22;2.83;;;8.10;67.90;;;;;;4975671;28;20074;-79
2024/02/26 07:10:21;;;;;;;5.70;3.05;;;8.20;66.00;;;;;;4975852;28;20018;-81
2024/02/26 07:12:46;;;;;;;7.05;3.40;;;8.30;66.60;;;;;;4976016;28;20023;-79
2024/02/26 07:15:12;;;;;;;8.35;3.60;;;8.60;66.30;;;;;;4974485;28;20065;-80
2024/02/26 07:17:41;;;;;;;6.45;3.22;;;9.10;64.30;;;;;;4975355;28;20375;-79
2024/02/26 07:20:08;;;;;;;6.38;3.25;;;9.40;62.70;;;;;;4975876;28;20102;-80
2024/02/26 07:22:33;;;;;;;5.95;3.65;;;9.60;61.20;;;;;;4975553;28;20031;-80
2024/02/26 07:24:59;;;;;;;6.82;5.35;;;9.90;60.60;;;;;;4975921;28;20038;-80
2024/02/26 07:27:24;;;;;;;10.23;6.97;;;10.00;60.70;;;;;;4975386;28;20022;-78
2024/02/26 07:29:50;;;;;;;27.38;19.35;;;10.10;60.30;;;;;;4975220;28;20078;-73
2024/02/26 07:32:15;;;;;;;15.52;10.35;;;10.00;60.00;;;;;;4975130;28;20101;-73
2024/02/26 07:34:41;;;;;;;6.78;4.65;;;9.70;60.80;;;;;;4975677;28;20018;-74
2024/02/26 07:37:07;;;;;;;14.68;8.43;;;9.30;62.60;;;;;;4974938;28;20078;-73
2024/02/26 07:39:33;;;;;;;8.52;5.70;;;8.90;63.90;;;;;;4975215;28;20077;-74
2024/02/26 07:41:59;;;;;;;6.40;5.00;;;8.60;65.60;;;;;;4957754;28;20054;-73
2024/02/26 07:44:24;;;;;;;5.32;3.13;;;8.30;66.60;;;;;;4975016;28;20438;-74
2024/02/26 07:46:50;;;;;;;3.85;2.30;;;8.20;67.20;;;;;;4974904;28;20034;-73
2024/02/26 07:49:15;;;;;;;2.92;1.83;;;8.10;67.50;;;;;;4957771;28;20085;-72
2024/02/26 07:51:41;;;;;;;4.13;2.53;;;8.10;68.00;;;;;;4974833;28;20058;-72
2024/02/26 07:54:06;;;;;;;5.95;2.58;;;8.00;68.60;;;;;;4974829;28;20046;-72
2024/02/26 07:56:32;;;;;;;4.47;2.65;;;8.10;69.20;;;;;;4974871;28;20054;-73
2024/02/26 07:58:57;;;;;;;4.32;2.50;;;8.10;69.90;;;;;;4974696;28;20019;-74
2024/02/26 08:01:23;;;;;;;2.78;1.77;;;8.00;69.60;;;;;;4974727;28;20034;-73
2024/02/26 08:03:49;;;;;;;3.03;1.70;;;8.10;69.40;;;;;;4973416;28;20042;-73
2024/02/26 08:06:16;;;;;;;2.28;1.63;;;8.10;69.10;;;;;;4968717;28;20078;-76
2024/02/26 08:08:42;;;;;;;3.35;1.55;;;8.10;68.00;;;;;;4974350;28;20030;-78
2024/02/26 08:11:08;;;;;;;2.30;1.35;;;8.10;67.60;;;;;;4974830;28;20023;-74
2024/02/26 08:13:34;;;;;;;1.85;1.27;;;8.10;67.40;;;;;;4974977;28;20046;-78
2024/02/26 08:15:59;;;;;;;1.42;1.00;;;8.10;67.40;;;;;;4974545;28;20504;-72
2024/02/26 08:18:25;;;;;;;1.85;1.15;;;8.20;67.60;;;;;;4974718;28;20027;-76
2024/02/26 08:20:50;;;;;;;2.25;1.65;;;8.30;67.80;;;;;;4976080;28;20480;-73
2024/02/26 08:23:16;;;;;;;2.50;1.92;;;8.30;68.00;;;;;;4974408;28;20062;-71
2024/02/26 08:25:41;;;;;;;2.88;1.90;;;8.40;68.30;;;;;;4974578;28;20086;-72
2024/02/26 08:28:07;;;;;;;8.75;6.05;;;8.50;68.40;;;;;;4974139;28;20037;-71
2024/02/26 08:30:34;;;;;;;11.73;7.10;;;8.50;68.50;;;;;;4974300;28;20046;-73
2024/02/26 08:32:59;;;;;;;2.25;1.40;;;8.50;68.20;;;;;;4974585;28;20023;-73
2024/02/26 08:35:25;;;;;;;2.88;1.50;;;8.50;68.00;;;;;;4974221;28;20081;-72
2024/02/26 08:37:50;;;;;;;3.38;1.40;;;8.40;68.70;;;;;;4974291;28;20027;-72
2024/02/26 08:40:16;;;;;;;3.25;1.10;;;8.40;69.10;;;;;;4974325;28;20023;-73
2024/02/26 08:42:42;;;;;;;3.65;2.08;;;8.40;69.30;;;;;;4956796;28;20583;-71
2024/02/26 08:45:08;;;;;;;3.83;2.20;;;8.40;69.20;;;;;;4974099;28;20528;-72
2024/02/26 08:47:34;;;;;;;2.65;1.50;;;8.50;69.00;;;;;;4973969;28;20567;-71
2024/02/26 08:49:59;;;;;;;2.38;1.30;;;8.50;69.20;;;;;;4973973;28;20026;-72
2024/02/26 08:52:25;;;;;;;2.50;1.67;;;8.50;69.90;;;;;;4973773;28;20074;-72
2024/02/26 08:54:50;;;;;;;6.63;2.63;;;8.50;70.10;;;;;;4974160;28;20046;-73
2024/02/26 08:57:16;;;;;;;2.83;1.60;;;8.50;70.20;;;;;;4973820;28;20384;-72
2024/02/26 08:59:41;;;;;;;1.98;1.35;;;8.50;69.80;;;;;;4974275;28;20023;-75
2024/02/26 09:02:11;;;;;;;3.20;1.50;;;8.50;69.20;;;;;;4973844;28;20608;-73
2024/02/26 09:04:36;;;;;;;5.38;1.85;;;8.60;68.90;;;;;;4973896;28;20038;-74
2024/02/26 09:07:02;;;;;;;5.07;2.92;;;8.60;69.40;;;;;;4973985;28;20027;-73
2024/02/26 09:09:28;;;;;;;5.72;3.67;;;8.60;70.60;;;;;;4973843;28;20386;-73
2024/02/26 09:11:55;;;;;;;4.93;2.85;;;8.60;69.80;;;;;;4973807;28;20027;-72
2024/02/26 09:14:20;;;;;;;5.47;2.67;;;8.80;69.30;;;;;;4956600;28;20077;-74
2024/02/26 09:16:48;;;;;;;3.83;2.33;;;8.90;68.90;;;;;;4973804;28;20067;-73
2024/02/26 09:19:14;;;;;;;8.95;2.35;;;9.00;68.50;;;;;;4974072;28;20035;-72
2024/02/26 09:21:45;;;;;;;3.28;2.08;;;9.20;68.30;;;;;;4973573;28;20510;-73
2024/02/26 09:24:11;;;;;;;4.63;2.40;;;9.40;67.60;;;;;;4974099;28;20026;-73
2024/02/26 09:26:37;;;;;;;4.88;2.30;;;9.60;66.90;;;;;;4973679;28;20027;-72
2024/02/26 09:29:04;;;;;;;7.28;3.92;;;9.80;66.00;;;;;;4973663;28;20073;-72
2024/02/26 09:31:29;;;;;;;7.95;3.55;;;10.00;65.40;;;;;;4973583;28;20023;-72
2024/02/26 09:33:55;;;;;;;25.20;14.85;;;10.10;64.70;;;;;;4973758;28;20095;-71
2024/02/26 09:36:21;;;;;;;10.57;5.68;;;10.10;64.60;;;;;;4956263;28;20025;-72
2024/02/26 09:38:47;;;;;;;8.38;4.40;;;10.20;64.00;;;;;;4973513;28;20086;-73
2024/02/26 09:41:16;;;;;;;9.25;3.63;;;10.30;63.10;;;;;;4976564;28;20018;-73
2024/02/26 09:43:45;;;;;;;5.13;3.28;;;10.30;62.70;;;;;;4978916;28;20034;-72
2024/02/26 09:46:10;;;;;;;4.10;2.80;;;10.30;62.40;;;;;;4977280;28;20023;-72
2024/02/26 09:48:37;;;;;;;4.20;3.08;;;10.40;62.30;;;;;;4959902;28;20132;-73
2024/02/26 09:51:04;;;;;;;5.70;3.25;;;10.40;62.60;;;;;;4977190;28;20023;-73
2024/02/26 09:53:33;;;;;;;4.03;2.97;;;10.50;63.00;;;;;;4977093;28;20483;-72
2024/02/26 09:55:58;;;;;;;6.82;3.90;;;10.50;62.70;;;;;;4975385;28;20082;-72
2024/02/26 09:58:28;;;;;;;4.63;3.13;;;10.60;62.40;;;;;;4976982;28;20019;-73
2024/02/26 10:00:58;;;;;;;4.43;3.28;;;10.60;61.90;;;;;;4976605;28;20502;-71
2024/02/26 10:03:30;;;;;;;5.32;3.40;;;10.70;61.70;;;;;;4959536;28;20464;-71
2024/02/26 10:05:57;;;;;;;10.25;5.65;;;10.80;62.10;;;;;;4976914;28;20026;-73
2024/02/26 10:08:23;;;;;;;8.00;4.78;;;10.80;62.50;;;;;;4977208;28;20030;-72
2024/02/26 10:10:50;;;;;;;9.43;5.07;;;10.80;62.30;;;;;;4976688;28;20122;-73
2024/02/26 10:13:15;;;;;;;6.88;4.75;;;10.90;62.30;;;;;;4976941;28;20030;-73
2024/02/26 10:15:41;;;;;;;5.30;3.72;;;10.90;62.50;;;;;;4976665;28;20054;-75
2024/02/26 10:18:07;;;;;;;4.07;3.03;;;10.90;62.30;;;;;;4976805;28;20031;-73
2024/02/26 10:20:33;;;;;;;25.00;17.25;;;10.90;61.70;;;;;;4976640;28;20042;-74
2024/02/26 10:23:02;;;;;;;5.00;4.20;;;10.80;61.30;;;;;;4976476;28;20050;-70
2024/02/26 10:25:27;;;;;;;4.85;3.90;;;10.80;61.40;;;;;;4976720;28;20432;-73
2024/02/26 10:27:53;;;;;;;4.72;3.20;;;10.80;61.70;;;;;;4976419;28;20026;-72
2024/02/26 10:30:25;;;;;;;7.45;3.28;;;10.90;62.30;;;;;;4976301;28;20023;-71
2024/02/26 10:32:51;;;;;;;5.10;3.20;;;10.90;62.40;;;;;;4976221;28;20424;-72
2024/02/26 10:35:20;;;;;;;6.45;3.90;;;10.70;63.40;;;;;;4976524;28;20113;-71
2024/02/26 10:37:46;;;;;;;5.95;3.80;;;10.80;64.50;;;;;;4976436;28;20027;-72
2024/02/26 10:40:15;;;;;;;5.25;3.85;;;10.90;63.80;;;;;;4976199;28;20031;-74
2024/02/26 10:42:42;;;;;;;4.25;3.50;;;10.90;63.50;;;;;;4976109;28;20073;-73
2024/02/26 10:45:09;;;;;;;7.72;4.13;;;11.00;63.10;;;;;;4976056;28;20130;-72
2024/02/26 10:47:40;;;;;;;4.50;3.45;;;11.20;63.00;;;;;;4958495;28;20035;-73
2024/02/26 10:50:06;;;;;;;5.13;3.35;;;11.30;62.70;;;;;;4959065;28;20117;-71
2024/02/26 10:52:33;;;;;;;4.82;3.55;;;11.40;62.30;;;;;;4957803;28;20038;-72
2024/02/26 10:55:02;;;;;;;5.55;3.97;;;11.50;62.30;;;;;;4976033;28;20055;-73
2024/02/26 10:57:34;;;;;;;4.60;2.80;;;11.50;61.30;;;;;;4975745;28;20031;-73
2024/02/26 11:00:04;;;;;;;2.83;2.30;;;11.20;61.40;;;;;;4958563;28;20042;-74
2024/02/26 11:02:34;;;;;;;2.95;2.55;;;11.30;61.60;;;;;;4958499;28;20432;-72
2024/02/26 11:05:06;;;;;;;6.45;3.40;;;11.50;60.00;;;;;;4976757;28;20046;-74
2024/02/26 11:07:32;;;;;;;4.93;2.80;;;11.60;59.10;;;;;;4975561;28;20027;-75
2024/02/26 11:10:00;;;;;;;6.53;3.50;;;11.50;59.10;;;;;;4975459;28;20018;-73
2024/02/26 11:12:28;;;;;;;6.57;3.92;;;11.20;59.60;;;;;;4958236;28;20027;-72
2024/02/26 11:14:54;;;;;;;8.05;3.83;;;11.10;60.70;;;;;;4975490;28;20070;-72
2024/02/26 11:17:22;;;;;;;4.75;3.65;;;11.20;61.10;;;;;;4975269;28;20415;-72
2024/02/26 11:19:49;;;;;;;6.15;4.68;;;11.30;60.40;;;;;;4975904;28;20452;-73
2024/02/26 11:22:15;;;;;;;6.35;4.80;;;11.50;60.30;;;;;;4975342;28;20038;-72
2024/02/26 11:24:42;;;;;;;4.50;3.63;;;11.70;59.40;;;;;;4975564;28;20098;-73
2024/02/26 11:27:11;;;;;;;5.63;4.38;;;11.80;59.00;;;;;;4975090;28;20119;-72
2024/02/26 11:29:51;;;;;;;3.47;3.17;;;11.80;59.40;;;;;;4975253;28;20026;-74
2024/02/26 11:32:17;;;;;;;4.82;2.75;;;11.70;61.90;;;;;;4975623;28;20073;-74
2024/02/26 11:34:43;;;;;;;7.30;2.70;;;11.60;62.70;;;;;;4975325;28;20039;-73
2024/02/26 11:37:14;;;;;;;6.18;3.03;;;11.60;62.50;;;;;;4974864;28;20027;-73
2024/02/26 11:39:40;;;;;;;4.95;2.92;;;11.60;62.90;;;;;;4975436;28;20464;-74
2024/02/26 11:42:10;;;;;;;6.03;2.65;;;11.50;63.50;;;;;;4974944;28;20039;-80
2024/02/26 11:44:36;;;;;;;2.83;2.33;;;11.60;62.60;;;;;;4957034;28;20031;-75
2024/02/26 11:47:13;;;;;;;6.85;2.80;;;11.70;62.70;;;;;;4974634;28;20388;-75
2024/02/26 11:49:39;;;;;;;4.75;2.50;;;11.90;62.00;;;;;;4989830;28;20097;-76
2024/02/26 11:52:09;;;;;;;5.22;2.80;;;12.00;61.20;;;;;;4993622;28;20053;-76
2024/02/26 11:54:54;;;;;;;5.32;2.50;;;11.90;60.90;;;;;;4993405;28;20104;-76
2024/02/26 11:57:28;;;;;;;4.95;2.42;;;12.00;61.20;;;;;;4993755;28;20031;-76
2024/02/26 11:59:54;;;;;;;3.08;2.55;;;12.00;60.80;;;;;;4993675;28;20040;-76
2024/02/26 12:02:48;;;;;;;4.25;2.70;;;12.10;61.40;;;;;;4993679;28;20034;-74
2024/02/26 12:05:23;;;;;;;4.32;2.85;;;12.20;61.00;;;;;;4976389;28;20057;-73
2024/02/26 12:08:07;;;;;;;4.07;2.85;;;12.20;61.00;;;;;;4993914;28;20034;-73
2024/02/26 12:10:35;;;;;;;3.95;2.75;;;12.20;61.20;;;;;;4994217;28;20022;-71
2024/02/26 12:13:13;;;;;;;7.32;3.03;;;12.40;61.20;;;;;;4994163;28;20053;-73
2024/02/26 12:15:45;;;;;;;3.80;2.88;;;12.50;60.40;;;;;;4993708;28;20081;-72
2024/02/26 12:18:17;;;;;;;4.75;3.05;;;12.60;60.50;;;;;;4994064;28;20035;-73
2024/02/26 12:20:46;;;;;;;5.22;3.30;;;12.50;60.30;;;;;;4993899;28;20035;-72
2024/02/26 12:23:19;;;;;;;6.32;3.45;;;12.50;60.30;;;;;;4993442;28;20034;-75
2024/02/26 12:25:48;;;;;;;3.22;2.50;;;12.50;60.30;;;;;;4976105;28;20114;-72
2024/02/26 12:28:14;;;;;;;7.35;2.58;;;12.50;60.80;;;;;;4993202;28;20061;-73
2024/02/26 12:30:39;;;;;;;4.20;2.88;;;12.30;61.10;;;;;;4976302;28;20368;-72
2024/02/26 12:33:08;;;;;;;23.30;16.95;;;12.20;61.30;;;;;;4976025;28;20033;-73
2024/02/26 12:35:34;;;;;;;6.47;3.65;;;12.20;61.70;;;;;;4993621;28;20022;-73
2024/02/26 12:38:00;;;;;;;5.32;4.18;;;11.90;62.60;;;;;;4993570;28;20534;-73
2024/02/26 12:40:26;;;;;;;4.55;3.60;;;12.00;62.10;;;;;;4993738;28;20022;-73
2024/02/26 12:42:54;;;;;;;5.00;3.10;;;11.90;61.50;;;;;;4976098;28;20039;-73
2024/02/26 12:45:20;;;;;;;4.15;3.10;;;12.10;61.30;;;;;;4993484;28;20037;-73
2024/02/26 12:47:47;;;;;;;3.90;3.10;;;12.20;61.40;;;;;;4993088;28;20113;-72
2024/02/26 12:50:13;;;;;;;3.63;2.95;;;12.40;61.10;;;;;;4993357;28;20026;-73